createdAt,value
2023-04-27T00:00:58.845Z,8.68
2023-04-27T00:03:26.619Z,10.68
2023-04-27T00:05:54.380Z,9.52
2023-04-27T00:08:21.277Z,11.57
2023-04-27T00:10:49.410Z,11.73
2023-04-27T00:13:16.828Z,21.05
2023-04-27T00:15:46.320Z,10.98
2023-04-27T00:18:13.381Z,12.65
2023-04-27T00:20:40.272Z,16.60
2023-04-27T00:23:07.774Z,9.02
2023-04-27T00:25:34.735Z,12.05
2023-04-27T00:28:01.517Z,13.73
2023-04-27T00:30:28.345Z,10.20
2023-04-27T00:32:55.720Z,11.77
2023-04-27T00:35:22.667Z,12.15
2023-04-27T00:37:49.826Z,12.45
2023-04-27T00:40:17.120Z,17.25
2023-04-27T00:42:43.828Z,10.50
2023-04-27T00:45:11.443Z,13.38
2023-04-27T00:47:38.362Z,11.65
2023-04-27T00:50:09.131Z,13.27
2023-04-27T00:52:38.079Z,11.90
2023-04-27T00:55:05.991Z,11.98
2023-04-27T00:57:37.123Z,14.45
2023-04-27T01:00:07.291Z,12.30
2023-04-27T01:02:36.055Z,13.50
2023-04-27T01:05:03.941Z,14.52
2023-04-27T01:07:31.754Z,14.15
2023-04-27T01:10:00.407Z,11.80
2023-04-27T01:12:27.095Z,18.30
2023-04-27T01:14:54.388Z,14.57
2023-04-27T01:17:21.968Z,16.77
2023-04-27T01:19:52.985Z,14.00
2023-04-27T01:22:20.058Z,24.67
2023-04-27T01:24:49.418Z,16.83
2023-04-27T01:27:16.939Z,16.55
2023-04-27T01:29:44.682Z,11.52
2023-04-27T01:32:13.528Z,19.33
2023-04-27T01:34:41.906Z,21.45
2023-04-27T01:37:08.977Z,17.83
2023-04-27T01:39:35.902Z,18.58
2023-04-27T01:42:06.321Z,14.27
2023-04-27T01:44:33.238Z,21.50
2023-04-27T01:46:59.977Z,13.23
2023-04-27T01:49:26.743Z,16.50
2023-04-27T01:51:56.708Z,12.30
2023-04-27T01:54:23.484Z,23.30
2023-04-27T01:56:50.582Z,21.23
2023-04-27T01:59:18.788Z,24.17
2023-04-27T02:01:46.866Z,13.00
2023-04-27T02:04:13.810Z,15.38
2023-04-27T02:06:43.249Z,8.52
2023-04-27T02:09:10.378Z,11.90
2023-04-27T02:11:37.351Z,15.80
2023-04-27T02:14:04.232Z,11.57
2023-04-27T02:16:31.659Z,19.27
2023-04-27T02:19:01.436Z,14.65
2023-04-27T02:21:28.914Z,16.92
2023-04-27T02:23:55.584Z,10.85
2023-04-27T02:26:29.581Z,16.25
2023-04-27T02:28:59.845Z,18.60
2023-04-27T02:31:27.064Z,11.88
2023-04-27T02:33:57.055Z,10.32
2023-04-27T02:36:23.738Z,13.88
2023-04-27T02:38:50.648Z,8.55
2023-04-27T02:41:19.263Z,9.95
2023-04-27T02:43:47.575Z,11.32
2023-04-27T02:46:14.863Z,7.47
2023-04-27T02:48:43.727Z,12.25
2023-04-27T02:51:10.752Z,9.65
2023-04-27T02:53:38.666Z,9.38
2023-04-27T02:56:06.380Z,12.73
2023-04-27T02:58:33.459Z,10.90
2023-04-27T03:01:00.201Z,12.90
2023-04-27T03:03:28.684Z,9.20
2023-04-27T03:05:55.939Z,10.35
2023-04-27T03:08:23.659Z,12.70
2023-04-27T03:10:51.757Z,12.80
2023-04-27T03:13:19.878Z,8.98
2023-04-27T03:15:50.426Z,7.15
2023-04-27T03:18:17.431Z,12.30
2023-04-27T03:20:44.245Z,8.05
2023-04-27T03:23:12.553Z,12.88
2023-04-27T03:25:39.256Z,10.48
2023-04-27T03:28:07.311Z,11.73
2023-04-27T03:30:33.988Z,16.13
2023-04-27T03:33:01.366Z,13.90
2023-04-27T03:35:28.304Z,10.93
2023-04-27T03:37:55.311Z,12.68
2023-04-27T03:40:22.208Z,20.15
2023-04-27T03:42:49.318Z,15.02
2023-04-27T03:45:18.256Z,19.38
2023-04-27T03:47:47.191Z,16.02
2023-04-27T03:50:18.683Z,12.48
2023-04-27T03:52:45.901Z,12.00
2023-04-27T03:55:13.128Z,15.07
2023-04-27T03:57:39.850Z,14.18
2023-04-27T04:00:11.941Z,13.70
2023-04-27T04:02:39.445Z,12.43
2023-04-27T04:05:06.955Z,8.45
2023-04-27T04:07:34.466Z,10.10
2023-04-27T04:10:01.299Z,10.70
2023-04-27T04:12:29.850Z,12.68
2023-04-27T04:14:56.801Z,11.48
2023-04-27T04:17:24.977Z,12.80
2023-04-27T04:19:51.735Z,10.90
2023-04-27T04:22:18.969Z,7.70
2023-04-27T04:24:45.885Z,8.60
2023-04-27T04:27:12.679Z,12.75
2023-04-27T04:29:39.937Z,7.22
2023-04-27T04:32:08.087Z,6.30
2023-04-27T04:34:36.178Z,9.65
2023-04-27T04:37:05.609Z,10.30
2023-04-27T04:39:33.296Z,6.53
2023-04-27T04:42:00.119Z,9.10
2023-04-27T04:44:26.874Z,12.40
2023-04-27T04:46:54.086Z,11.30
2023-04-27T04:49:20.877Z,10.43
2023-04-27T04:51:47.580Z,6.50
2023-04-27T04:54:14.731Z,7.93
2023-04-27T04:56:41.436Z,7.68
2023-04-27T04:59:08.747Z,7.45
2023-04-27T05:01:36.700Z,7.22
2023-04-27T05:04:03.729Z,9.55
2023-04-27T05:06:30.591Z,14.57
2023-04-27T05:08:57.342Z,10.13
2023-04-27T05:11:24.317Z,17.23
2023-04-27T05:13:51.115Z,7.47
2023-04-27T05:16:18.262Z,12.30
2023-04-27T05:18:45.026Z,9.13
2023-04-27T05:21:20.765Z,7.68
2023-04-27T05:23:48.083Z,7.50
2023-04-27T05:26:16.824Z,7.47
2023-04-27T05:28:44.727Z,5.25
2023-04-27T05:31:11.941Z,11.95
2023-04-27T05:33:38.653Z,14.43
2023-04-27T05:36:12.866Z,12.15
2023-04-27T05:38:41.828Z,8.77
2023-04-27T05:41:08.555Z,6.50
2023-04-27T05:43:36.725Z,10.05
2023-04-27T05:46:05.249Z,9.50
2023-04-27T05:48:33.220Z,14.65
2023-04-27T05:51:03.213Z,10.10
2023-04-27T05:53:31.139Z,9.70
2023-04-27T05:56:01.049Z,9.07
2023-04-27T05:58:29.465Z,9.18
2023-04-27T06:00:57.296Z,8.52
2023-04-27T06:03:24.809Z,7.63
2023-04-27T06:05:58.758Z,8.25
2023-04-27T06:08:28.170Z,8.88
2023-04-27T06:10:55.197Z,8.35
2023-04-27T06:13:24.622Z,8.77
2023-04-27T06:15:51.861Z,6.10
2023-04-27T06:18:22.587Z,6.45
2023-04-27T06:20:51.692Z,7.88
2023-04-27T06:23:18.545Z,7.70
2023-04-27T06:25:45.564Z,15.50
2023-04-27T06:28:12.610Z,8.68
2023-04-27T06:30:39.934Z,4.18
2023-04-27T06:33:07.784Z,5.40
2023-04-27T06:35:34.490Z,4.50
2023-04-27T06:38:01.564Z,11.18
2023-04-27T06:40:28.501Z,5.00
2023-04-27T06:42:55.963Z,7.40
2023-04-27T06:45:22.903Z,5.72
2023-04-27T06:47:49.787Z,5.70
2023-04-27T06:50:17.901Z,8.13
2023-04-27T06:52:45.074Z,4.63
2023-04-27T06:55:13.765Z,5.13
2023-04-27T06:57:40.474Z,7.90
2023-04-27T07:00:07.824Z,4.88
2023-04-27T07:02:35.188Z,4.40
2023-04-27T07:05:03.351Z,3.83
2023-04-27T07:07:30.165Z,7.43
2023-04-27T07:09:57.017Z,4.47
2023-04-27T07:12:23.760Z,8.23
2023-04-27T07:14:51.130Z,7.30
2023-04-27T07:17:18.429Z,3.93
2023-04-27T07:19:45.937Z,8.73
2023-04-27T07:22:12.770Z,6.43
2023-04-27T07:24:44.208Z,9.47
2023-04-27T07:27:15.152Z,6.83
2023-04-27T07:29:42.902Z,7.90
2023-04-27T07:32:09.910Z,6.17
2023-04-27T07:34:49.038Z,3.47
2023-04-27T07:37:20.022Z,11.03
2023-04-27T07:39:47.398Z,4.07
2023-04-27T07:42:14.109Z,3.53
2023-04-27T07:44:41.617Z,6.00
2023-04-27T07:47:09.339Z,3.10
2023-04-27T07:49:37.462Z,3.33
2023-04-27T07:52:04.830Z,5.60
2023-04-27T07:54:32.028Z,9.60
2023-04-27T07:56:58.779Z,4.90
2023-04-27T07:59:29.237Z,11.30
2023-04-27T08:02:07.009Z,3.83
2023-04-27T08:04:43.482Z,6.77
2023-04-27T08:07:10.881Z,3.30
2023-04-27T08:09:37.947Z,2.73
2023-04-27T08:12:06.060Z,8.27
2023-04-27T08:14:35.316Z,7.60
2023-04-27T08:17:02.376Z,3.50
2023-04-27T08:19:29.179Z,3.10
2023-04-27T08:21:57.208Z,4.37
2023-04-27T08:24:25.777Z,6.17
2023-04-27T08:26:52.577Z,4.03
2023-04-27T08:29:26.945Z,7.80
2023-04-27T08:31:59.815Z,5.60
2023-04-27T08:34:27.383Z,19.57
2023-04-27T08:36:54.260Z,4.30
2023-04-27T08:39:21.449Z,13.20
2023-04-27T08:41:50.880Z,7.77
2023-04-27T08:44:18.206Z,4.63
2023-04-27T08:46:45.061Z,4.90
2023-04-27T08:49:15.159Z,4.20
2023-04-27T08:51:44.292Z,5.20
2023-04-27T08:54:11.150Z,4.57
2023-04-27T08:56:38.309Z,7.07
2023-04-27T08:59:15.565Z,6.57
2023-04-27T09:01:48.611Z,4.30
2023-04-27T09:04:18.548Z,3.93
2023-04-27T09:06:46.250Z,5.10
2023-04-27T09:09:23.467Z,7.03
2023-04-27T09:11:50.649Z,5.60
2023-04-27T09:14:18.624Z,3.77
2023-04-27T09:16:46.843Z,4.03
2023-04-27T09:19:25.784Z,5.30
2023-04-27T09:22:07.715Z,3.07
2023-04-27T09:24:37.210Z,3.40
2023-04-27T09:27:05.200Z,4.67
2023-04-27T09:29:36.760Z,3.40
2023-04-27T09:32:16.775Z,2.90
2023-04-27T09:34:46.853Z,6.97
2023-04-27T09:37:16.916Z,13.63
2023-04-27T09:39:43.874Z,5.40
2023-04-27T09:42:12.534Z,7.70
2023-04-27T09:44:39.449Z,5.53
2023-04-27T09:47:07.741Z,3.27
2023-04-27T09:49:35.109Z,2.67
2023-04-27T09:52:03.440Z,2.57
2023-04-27T09:54:33.729Z,8.07
2023-04-27T09:57:13.060Z,4.70
2023-04-27T10:00:14.737Z,5.77
2023-04-27T10:03:13.990Z,8.47
2023-04-27T10:05:58.444Z,5.53
2023-04-27T10:08:27.144Z,3.77
2023-04-27T10:10:54.523Z,4.63
2023-04-27T10:13:23.063Z,3.20
2023-04-27T10:15:50.078Z,4.57
2023-04-27T10:18:27.668Z,4.60
2023-04-27T10:20:54.496Z,5.20
2023-04-27T10:23:30.728Z,4.30
2023-04-27T10:26:08.005Z,5.63
2023-04-27T10:28:39.599Z,8.23
2023-04-27T10:31:13.064Z,4.97
2023-04-27T10:33:46.618Z,7.30
2023-04-27T10:36:16.449Z,6.87
2023-04-27T10:38:43.195Z,6.53
2023-04-27T10:41:14.706Z,10.27
2023-04-27T10:43:41.492Z,11.57
2023-04-27T10:46:13.493Z,6.93
2023-04-27T10:48:41.637Z,4.27
2023-04-27T10:51:08.953Z,4.47
2023-04-27T10:53:44.937Z,6.03
2023-04-27T10:56:11.646Z,3.70
2023-04-27T11:01:10.562Z,3.13
2023-04-27T11:03:37.511Z,4.10
2023-04-27T11:06:06.194Z,3.57
2023-04-27T11:08:34.207Z,4.90
2023-04-27T11:11:01.836Z,7.93
2023-04-27T11:13:29.133Z,8.05
2023-04-27T11:16:00.574Z,9.40
2023-04-27T11:18:31.882Z,5.50
2023-04-27T11:21:13.238Z,5.20
2023-04-27T11:23:40.797Z,4.55
2023-04-27T11:26:11.135Z,10.32
2023-04-27T11:28:38.475Z,5.50
2023-04-27T11:31:07.470Z,7.47
2023-04-27T11:33:35.941Z,4.72
2023-04-27T11:36:03.900Z,5.05
2023-04-27T11:38:34.146Z,3.75
2023-04-27T11:41:06.083Z,8.43
2023-04-27T11:43:33.779Z,7.00
2023-04-27T11:46:04.870Z,3.97
2023-04-27T11:48:31.673Z,3.83
2023-04-27T11:51:01.836Z,5.05
2023-04-27T11:53:39.693Z,5.15
2023-04-27T11:56:10.766Z,6.05
2023-04-27T11:58:39.661Z,6.82
2023-04-27T12:01:07.685Z,6.97
2023-04-27T12:03:35.482Z,8.27
2023-04-27T12:06:21.564Z,6.70
2023-04-27T12:08:51.171Z,6.03
2023-04-27T12:11:18.725Z,5.78
2023-04-27T12:13:47.153Z,8.18
2023-04-27T12:16:14.126Z,4.05
2023-04-27T12:18:41.064Z,5.07
2023-04-27T12:21:08.481Z,4.88
2023-04-27T12:23:36.057Z,5.70
2023-04-27T12:26:04.066Z,4.77
2023-04-27T12:28:30.825Z,5.97
2023-04-27T12:30:57.902Z,9.07
2023-04-27T12:33:25.839Z,5.33
2023-04-27T12:35:55.076Z,5.30
2023-04-27T12:38:22.543Z,5.67
2023-04-27T12:40:49.561Z,4.13
2023-04-27T12:43:16.391Z,7.33
2023-04-27T12:45:43.174Z,6.93
2023-04-27T12:48:09.931Z,5.13
2023-04-27T12:50:39.663Z,5.20
2023-04-27T12:53:14.940Z,6.50
2023-04-27T12:55:42.514Z,3.63
2023-04-27T12:58:09.909Z,4.40
2023-04-27T13:00:40.901Z,4.73
2023-04-27T13:03:10.418Z,5.33
2023-04-27T13:05:37.684Z,3.77
2023-04-27T13:08:05.658Z,5.97
2023-04-27T13:10:33.066Z,11.23
2023-04-27T13:13:00.281Z,5.77
2023-04-27T13:15:27.744Z,4.40
2023-04-27T13:17:54.584Z,4.60
2023-04-27T13:20:21.417Z,3.43
2023-04-27T13:22:49.762Z,5.50
2023-04-27T13:25:17.491Z,4.03
2023-04-27T13:27:44.284Z,4.10
2023-04-27T13:30:11.244Z,4.80
2023-04-27T13:32:38.494Z,3.87
2023-04-27T13:35:05.628Z,5.70
2023-04-27T13:37:33.807Z,3.70
2023-04-27T13:40:00.839Z,3.37
2023-04-27T13:42:29.794Z,4.67
2023-04-27T13:44:57.154Z,7.07
2023-04-27T13:47:23.939Z,2.80
2023-04-27T13:49:50.781Z,5.40
2023-04-27T13:52:17.617Z,5.80
2023-04-27T13:54:44.880Z,8.50
2023-04-27T13:57:11.745Z,11.68
2023-04-27T13:59:39.951Z,3.55
2023-04-27T14:02:06.951Z,5.60
2023-04-27T14:04:36.092Z,5.20
2023-04-27T14:07:02.907Z,9.40
2023-04-27T14:09:32.938Z,6.70
2023-04-27T14:12:00.562Z,7.28
2023-04-27T14:14:32.646Z,3.78
2023-04-27T14:16:59.881Z,8.30
2023-04-27T14:19:27.819Z,5.07
2023-04-27T14:21:56.134Z,6.95
2023-04-27T14:24:23.047Z,6.82
2023-04-27T14:26:56.052Z,5.25
2023-04-27T14:29:24.035Z,6.35
2023-04-27T14:31:50.912Z,6.88
2023-04-27T14:34:20.142Z,5.95
2023-04-27T14:36:48.238Z,5.65
2023-04-27T14:39:15.364Z,7.28
2023-04-27T14:41:42.813Z,6.78
2023-04-27T14:44:09.496Z,6.40
2023-04-27T14:46:37.803Z,4.18
2023-04-27T14:49:07.598Z,4.65
2023-04-27T14:51:34.382Z,5.68
2023-04-27T14:54:02.646Z,5.30
2023-04-27T14:56:29.400Z,3.80
2023-04-27T14:58:56.237Z,4.60
2023-04-27T15:01:23.737Z,4.57
2023-04-27T15:03:53.188Z,8.55
2023-04-27T15:06:24.216Z,5.00
2023-04-27T15:08:51.355Z,3.42
2023-04-27T15:11:18.050Z,4.68
2023-04-27T15:13:45.189Z,4.95
2023-04-27T15:16:14.018Z,5.78
2023-04-27T15:18:42.800Z,4.13
2023-04-27T15:21:09.805Z,5.78
2023-04-27T15:23:37.664Z,4.45
2023-04-27T15:26:04.401Z,4.70
2023-04-27T15:28:33.654Z,5.10
2023-04-27T15:31:01.136Z,6.05
2023-04-27T15:33:27.906Z,5.00
2023-04-27T15:35:55.049Z,4.35
2023-04-27T15:38:22.179Z,6.10
2023-04-27T15:40:48.984Z,4.13
2023-04-27T15:43:16.014Z,6.43
2023-04-27T15:45:44.096Z,5.53
2023-04-27T15:48:14.223Z,4.40
2023-04-27T15:50:41.446Z,4.03
2023-04-27T15:53:08.533Z,5.45
2023-04-27T15:55:35.237Z,7.13
2023-04-27T15:58:02.335Z,5.95
2023-04-27T16:00:30.930Z,5.25
2023-04-27T16:02:58.196Z,9.05
2023-04-27T16:05:25.048Z,4.13
2023-04-27T16:07:51.828Z,6.60
2023-04-27T16:10:18.578Z,6.35
2023-04-27T16:12:45.312Z,4.47
2023-04-27T16:15:12.644Z,6.05
2023-04-27T16:17:39.792Z,7.18
2023-04-27T16:20:07.262Z,3.78
2023-04-27T16:22:35.249Z,4.05
2023-04-27T16:25:02.459Z,6.22
2023-04-27T16:27:29.476Z,4.38
2023-04-27T16:29:56.492Z,4.32
2023-04-27T16:32:23.587Z,5.20
2023-04-27T16:34:50.552Z,3.67
2023-04-27T16:37:17.665Z,4.40
2023-04-27T16:39:45.899Z,5.68
2023-04-27T16:42:20.069Z,3.45
2023-04-27T16:44:48.048Z,7.10
2023-04-27T16:47:17.871Z,3.55
2023-04-27T16:49:45.758Z,4.90
2023-04-27T16:52:12.840Z,6.40
2023-04-27T16:54:42.167Z,5.25
2023-04-27T16:57:13.601Z,5.32
2023-04-27T16:59:44.889Z,4.63
2023-04-27T17:02:23.670Z,4.10
2023-04-27T17:04:55.369Z,6.30
2023-04-27T17:07:22.072Z,5.60
2023-04-27T17:09:49.117Z,8.55
2023-04-27T17:12:17.139Z,4.53
2023-04-27T17:14:43.846Z,5.40
2023-04-27T17:17:10.933Z,13.55
2023-04-27T17:19:38.140Z,9.30
2023-04-27T17:22:05.252Z,5.22
2023-04-27T17:24:32.019Z,4.35
2023-04-27T17:26:58.953Z,6.65
2023-04-27T17:29:26.165Z,4.13
2023-04-27T17:31:52.980Z,6.20
2023-04-27T17:34:19.727Z,6.45
2023-04-27T17:36:46.621Z,3.58
2023-04-27T17:39:14.941Z,6.25
2023-04-27T17:41:42.017Z,8.50
2023-04-27T17:44:08.979Z,4.63
2023-04-27T17:46:37.826Z,5.20
2023-04-27T17:49:09.732Z,7.93
2023-04-27T17:51:37.830Z,4.65
2023-04-27T17:54:05.121Z,5.85
2023-04-27T17:56:32.904Z,5.50
2023-04-27T17:58:59.622Z,4.53
2023-04-27T18:01:29.631Z,8.55
2023-04-27T18:03:56.861Z,6.68
2023-04-27T18:06:24.365Z,5.53
2023-04-27T18:08:53.470Z,4.72
2023-04-27T18:11:22.549Z,5.40
2023-04-27T18:13:49.396Z,3.58
2023-04-27T18:16:16.892Z,5.03
2023-04-27T18:18:43.670Z,5.95
2023-04-27T18:21:14.779Z,4.55
2023-04-27T18:23:46.257Z,11.48
2023-04-27T18:26:14.025Z,5.47
2023-04-27T18:28:42.184Z,6.72
2023-04-27T18:31:16.035Z,4.47
2023-04-27T18:33:46.101Z,4.75
2023-04-27T18:36:13.128Z,7.47
2023-04-27T18:38:40.600Z,7.70
2023-04-27T18:41:11.472Z,6.05
2023-04-27T18:43:38.289Z,6.63
2023-04-27T18:46:05.764Z,6.93
2023-04-27T18:48:34.465Z,5.93
2023-04-27T18:51:02.216Z,4.53
2023-04-27T18:53:29.170Z,10.75
2023-04-27T18:55:56.386Z,7.35
2023-04-27T18:58:23.458Z,6.15
2023-04-27T19:00:50.486Z,10.18
2023-04-27T19:03:18.492Z,10.63
2023-04-27T19:05:48.290Z,7.07
2023-04-27T19:08:15.005Z,4.72
2023-04-27T19:10:42.123Z,10.65
2023-04-27T19:13:08.901Z,5.95
2023-04-27T19:15:35.808Z,5.90
2023-04-27T19:18:10.397Z,8.50
2023-04-27T19:20:38.604Z,13.57
2023-04-27T19:23:05.565Z,7.75
2023-04-27T19:25:32.379Z,7.88
2023-04-27T19:27:59.102Z,14.18
2023-04-27T19:30:25.955Z,13.30
2023-04-27T19:32:56.272Z,10.27
2023-04-27T19:35:23.863Z,6.95
2023-04-27T19:37:51.218Z,7.28
2023-04-27T19:40:18.308Z,5.32
2023-04-27T19:42:45.572Z,10.65
2023-04-27T19:45:12.766Z,11.30
2023-04-27T19:47:41.437Z,8.23
2023-04-27T19:50:08.483Z,8.68
2023-04-27T19:52:35.338Z,8.88
2023-04-27T19:55:03.800Z,5.07
2023-04-27T19:57:30.900Z,7.88
2023-04-27T19:59:57.653Z,11.32
2023-04-27T20:02:24.501Z,13.85
2023-04-27T20:04:51.816Z,6.60
2023-04-27T20:07:18.899Z,9.45
2023-04-27T20:09:45.685Z,8.70
2023-04-27T20:12:24.001Z,18.65
2023-04-27T20:14:57.320Z,9.95
2023-04-27T20:17:27.315Z,7.32
2023-04-27T20:19:57.932Z,14.63
2023-04-27T20:22:25.115Z,11.65
2023-04-27T20:24:52.180Z,12.23
2023-04-27T20:27:18.972Z,8.82
2023-04-27T20:29:48.581Z,13.82
2023-04-27T20:32:15.299Z,12.32
2023-04-27T20:34:43.252Z,12.80
2023-04-27T20:37:10.551Z,13.18
2023-04-27T20:39:38.389Z,12.35
2023-04-27T20:42:05.805Z,12.65
2023-04-27T20:44:34.058Z,12.70
2023-04-27T20:47:03.098Z,18.30
2023-04-27T20:49:35.138Z,19.42
2023-04-27T20:52:02.669Z,12.88
2023-04-27T20:54:32.685Z,16.63
2023-04-27T20:57:02.793Z,17.85
2023-04-27T20:59:29.595Z,11.63
2023-04-27T21:01:56.501Z,15.02
2023-04-27T21:04:23.393Z,19.83
2023-04-27T21:06:50.629Z,17.27
2023-04-27T21:09:17.743Z,17.27
2023-04-27T21:11:44.870Z,14.75
2023-04-27T21:14:11.562Z,11.30
2023-04-27T21:16:38.585Z,15.70
2023-04-27T21:19:05.378Z,15.85
2023-04-27T21:21:32.102Z,18.25
2023-04-27T21:24:07.259Z,23.63
2023-04-27T21:26:37.064Z,15.15
2023-04-27T21:29:06.698Z,13.63
2023-04-27T21:31:34.194Z,17.98
2023-04-27T21:34:02.162Z,13.13
2023-04-27T21:36:29.203Z,17.38
2023-04-27T21:38:56.363Z,18.00
2023-04-27T21:41:23.101Z,17.23
2023-04-27T21:43:51.669Z,19.02
2023-04-27T21:46:18.499Z,12.38
2023-04-27T21:48:45.624Z,12.10
2023-04-27T21:51:12.317Z,16.25
2023-04-27T21:53:40.773Z,12.57
2023-04-27T21:56:10.359Z,17.00
2023-04-27T21:58:37.089Z,14.45
2023-04-27T22:01:04.305Z,17.30
2023-04-27T22:03:31.207Z,16.45
2023-04-27T22:05:58.338Z,16.85
2023-04-27T22:08:25.331Z,16.58
2023-04-27T22:10:52.530Z,21.38
2023-04-27T22:13:19.873Z,17.25
2023-04-27T22:15:48.258Z,23.52
2023-04-27T22:18:15.848Z,24.90
2023-04-27T22:20:43.439Z,21.92
2023-04-27T22:23:10.834Z,15.10
2023-04-27T22:25:37.982Z,18.92
2023-04-27T22:28:04.819Z,20.67
2023-04-27T22:30:31.939Z,20.05
2023-04-27T22:32:59.118Z,21.98
2023-04-27T22:35:27.618Z,26.63
2023-04-27T22:37:59.659Z,25.60
2023-04-27T22:40:26.631Z,21.42
2023-04-27T22:42:56.373Z,25.50
2023-04-27T22:45:24.190Z,27.92
2023-04-27T22:47:51.082Z,21.42
2023-04-27T22:50:21.156Z,20.45
2023-04-27T22:52:48.539Z,28.05
2023-04-27T22:55:16.463Z,24.33
2023-04-27T22:57:44.599Z,27.65
2023-04-27T23:00:12.714Z,26.23
2023-04-27T23:02:41.531Z,22.52
2023-04-27T23:05:11.231Z,28.27
2023-04-27T23:07:43.511Z,20.60
2023-04-27T23:10:10.975Z,25.15
2023-04-27T23:12:39.092Z,24.77
2023-04-27T23:15:07.912Z,20.48
2023-04-27T23:17:34.896Z,22.10
2023-04-27T23:20:04.028Z,28.10
2023-04-27T23:22:30.784Z,21.88
2023-04-27T23:24:59.199Z,27.42
2023-04-27T23:27:26.290Z,23.00
2023-04-27T23:29:53.147Z,22.92
2023-04-27T23:32:20.511Z,23.83
2023-04-27T23:34:47.479Z,24.05
2023-04-27T23:37:14.757Z,28.70
2023-04-27T23:39:44.471Z,21.67
2023-04-27T23:42:11.267Z,23.08
2023-04-27T23:44:38.526Z,22.27
2023-04-27T23:47:06.046Z,20.75
2023-04-27T23:49:32.808Z,23.13
2023-04-27T23:51:59.530Z,23.38
2023-04-27T23:54:31.112Z,20.45
2023-04-27T23:56:57.952Z,22.55
2023-04-27T23:59:24.814Z,25.15
